createdAt,value
2023-05-15T00:01:03.020Z,16.43
2023-05-15T00:03:29.818Z,16.32
2023-05-15T00:05:57.276Z,16.46
2023-05-15T00:08:23.972Z,16.51
2023-05-15T00:11:00.705Z,16.21
2023-05-15T00:13:28.528Z,16.49
2023-05-15T00:15:55.196Z,16.31
2023-05-15T00:18:21.994Z,16.34
2023-05-15T00:20:48.590Z,16.37
2023-05-15T00:23:15.241Z,16.35
2023-05-15T00:25:42.086Z,16.25
2023-05-15T00:28:08.798Z,16.40
2023-05-15T00:30:35.512Z,16.41
2023-05-15T00:33:02.270Z,16.51
2023-05-15T00:35:28.950Z,16.53
2023-05-15T00:37:55.567Z,16.54
2023-05-15T00:40:23.815Z,16.53
2023-05-15T00:42:51.255Z,16.50
2023-05-15T00:45:18.365Z,16.57
2023-05-15T00:47:45.916Z,16.56
2023-05-15T00:50:12.698Z,16.58
2023-05-15T00:52:39.388Z,16.54
2023-05-15T00:55:06.794Z,16.49
2023-05-15T00:57:33.694Z,16.57
2023-05-15T01:00:01.889Z,16.47
2023-05-15T01:02:28.750Z,16.49
2023-05-15T01:04:55.518Z,16.50
2023-05-15T01:07:22.220Z,16.46
2023-05-15T01:09:49.755Z,16.55
2023-05-15T01:12:17.276Z,16.06
2023-05-15T01:14:43.895Z,16.40
2023-05-15T01:17:10.513Z,16.32
2023-05-15T01:19:37.323Z,16.33
2023-05-15T01:22:22.827Z,16.37
2023-05-15T01:25:08.375Z,16.38
2023-05-15T01:27:37.780Z,16.25
2023-05-15T01:30:26.446Z,16.37
2023-05-15T01:32:53.081Z,16.43
2023-05-15T01:35:52.166Z,16.49
2023-05-15T01:38:21.633Z,16.55
2023-05-15T01:40:49.251Z,16.43
2023-05-15T01:43:18.714Z,16.37
2023-05-15T01:45:45.415Z,16.41
2023-05-15T01:48:13.236Z,16.39
2023-05-15T01:50:41.276Z,16.30
2023-05-15T01:53:09.571Z,16.34
2023-05-15T01:55:37.725Z,16.41
2023-05-15T01:58:05.348Z,16.17
2023-05-15T02:00:32.979Z,15.80
2023-05-15T02:03:00.333Z,15.81
2023-05-15T02:05:27.609Z,15.90
2023-05-15T02:07:55.067Z,15.45
2023-05-15T02:10:22.383Z,15.87
2023-05-15T02:12:49.723Z,15.92
2023-05-15T02:15:17.233Z,16.03
2023-05-15T02:17:43.968Z,16.10
2023-05-15T02:20:10.700Z,15.98
2023-05-15T02:22:37.352Z,16.06
2023-05-15T02:25:04.188Z,16.15
2023-05-15T02:27:42.970Z,16.26
2023-05-15T02:30:12.752Z,16.28
2023-05-15T02:32:59.925Z,16.09
2023-05-15T02:35:37.951Z,16.02
2023-05-15T02:38:08.288Z,15.90
2023-05-15T02:40:36.780Z,15.35
2023-05-15T02:43:04.352Z,15.63
2023-05-15T02:45:31.655Z,15.84
2023-05-15T02:47:59.274Z,15.75
2023-05-15T02:50:26.689Z,15.90
2023-05-15T02:53:01.672Z,15.98
2023-05-15T02:55:28.360Z,15.86
2023-05-15T02:57:54.982Z,16.06
2023-05-15T03:00:21.832Z,16.02
2023-05-15T03:02:48.580Z,15.70
2023-05-15T03:05:15.256Z,15.98
2023-05-15T03:07:42.386Z,16.03
2023-05-15T03:10:09.057Z,15.57
2023-05-15T03:12:36.192Z,15.54
2023-05-15T03:15:02.821Z,15.40
2023-05-15T03:17:29.453Z,15.56
2023-05-15T03:19:56.721Z,15.33
2023-05-15T03:22:23.472Z,15.58
2023-05-15T03:24:50.174Z,15.28
2023-05-15T03:27:16.774Z,15.58
2023-05-15T03:29:43.577Z,15.50
2023-05-15T03:32:10.284Z,15.65
2023-05-15T03:34:37.140Z,15.67
2023-05-15T03:37:04.031Z,15.64
2023-05-15T03:39:30.654Z,15.80
2023-05-15T03:41:57.312Z,15.87
2023-05-15T03:44:23.983Z,15.86
2023-05-15T03:46:50.716Z,15.93
2023-05-15T03:49:17.389Z,15.96
2023-05-15T03:51:44.092Z,15.91
2023-05-15T03:54:11.002Z,16.02
2023-05-15T03:56:37.749Z,16.04
2023-05-15T03:59:04.402Z,15.93
2023-05-15T04:01:31.121Z,16.12
2023-05-15T04:03:57.907Z,16.22
2023-05-15T04:06:24.555Z,16.07
2023-05-15T04:08:51.314Z,16.09
2023-05-15T04:11:18.629Z,16.13
2023-05-15T04:13:45.291Z,16.13
2023-05-15T04:16:11.950Z,15.97
2023-05-15T04:18:39.848Z,16.12
2023-05-15T04:21:06.569Z,16.38
2023-05-15T04:23:33.239Z,16.25
2023-05-15T04:25:59.992Z,15.81
2023-05-15T04:30:53.660Z,16.29
2023-05-15T04:33:20.346Z,16.42
2023-05-15T04:35:48.271Z,16.44
2023-05-15T04:38:15.003Z,16.34
2023-05-15T04:40:41.720Z,16.46
2023-05-15T04:43:08.543Z,16.38
2023-05-15T04:45:35.412Z,16.63
2023-05-15T04:48:02.075Z,16.57
2023-05-15T04:50:28.717Z,16.60
2023-05-15T04:52:55.434Z,16.62
2023-05-15T04:55:22.139Z,16.59
2023-05-15T04:57:48.891Z,16.75
2023-05-15T05:00:15.803Z,16.72
2023-05-15T05:02:45.500Z,16.64
2023-05-15T05:05:14.805Z,16.54
2023-05-15T05:07:42.612Z,16.71
2023-05-15T05:10:09.615Z,16.65
2023-05-15T05:12:36.211Z,16.51
2023-05-15T05:15:02.882Z,16.80
2023-05-15T05:17:29.887Z,16.84
2023-05-15T05:19:56.621Z,16.88
2023-05-15T05:22:23.197Z,17.19
2023-05-15T05:24:49.869Z,17.17
2023-05-15T05:27:16.520Z,17.02
2023-05-15T05:29:43.168Z,17.25
2023-05-15T05:32:09.812Z,17.12
2023-05-15T05:34:36.551Z,17.21
2023-05-15T05:37:03.331Z,17.35
2023-05-15T05:39:30.087Z,17.52
2023-05-15T05:41:56.828Z,17.41
2023-05-15T05:44:23.499Z,17.51
2023-05-15T05:46:51.597Z,17.86
2023-05-15T05:49:18.343Z,17.90
2023-05-15T05:51:46.642Z,17.96
2023-05-15T05:54:15.215Z,18.06
2023-05-15T05:56:42.617Z,18.12
2023-05-15T05:59:09.426Z,18.29
2023-05-15T06:01:36.500Z,18.35
2023-05-15T06:04:03.282Z,18.37
2023-05-15T06:06:30.229Z,18.26
2023-05-15T06:08:57.379Z,18.22
2023-05-15T06:11:25.576Z,18.31
2023-05-15T06:13:52.897Z,18.18
2023-05-15T06:16:19.825Z,18.70
2023-05-15T06:18:46.672Z,18.99
2023-05-15T06:21:13.353Z,18.95
2023-05-15T06:23:40.050Z,19.04
2023-05-15T06:26:06.936Z,19.03
2023-05-15T06:28:33.642Z,19.26
2023-05-15T06:31:00.435Z,19.18
2023-05-15T06:33:27.127Z,19.61
2023-05-15T06:35:53.791Z,19.62
2023-05-15T06:38:20.536Z,20.01
2023-05-15T06:40:47.569Z,19.75
2023-05-15T06:43:14.212Z,19.85
2023-05-15T06:45:40.981Z,20.33
2023-05-15T06:48:07.641Z,20.37
2023-05-15T06:50:34.288Z,19.91
2023-05-15T06:53:01.461Z,20.53
2023-05-15T06:55:28.260Z,20.63
2023-05-15T06:57:55.014Z,20.40
2023-05-15T07:00:21.739Z,20.63
2023-05-15T07:02:48.412Z,20.61
2023-05-15T07:05:15.289Z,20.51
2023-05-15T07:07:42.906Z,20.49
2023-05-15T07:10:09.697Z,20.67
2023-05-15T07:12:36.426Z,20.36
2023-05-15T07:15:03.237Z,20.63
2023-05-15T07:17:31.338Z,20.71
2023-05-15T07:19:58.149Z,20.97
2023-05-15T07:22:26.964Z,20.74
2023-05-15T07:24:53.709Z,21.00
2023-05-15T07:27:20.316Z,20.82
2023-05-15T07:29:47.007Z,20.90
2023-05-15T07:32:13.674Z,20.46
2023-05-15T07:34:40.483Z,20.61
2023-05-15T07:37:07.179Z,20.80
2023-05-15T07:39:33.852Z,20.46
2023-05-15T07:42:00.986Z,20.19
2023-05-15T07:44:27.568Z,19.95
2023-05-15T07:46:55.451Z,20.23
2023-05-15T07:49:22.188Z,20.59
2023-05-15T07:51:48.840Z,20.52
2023-05-15T07:54:15.969Z,20.34
2023-05-15T07:56:42.806Z,20.46
2023-05-15T07:59:09.754Z,20.63
2023-05-15T08:01:36.921Z,21.09
2023-05-15T08:04:06.059Z,21.21
2023-05-15T08:06:33.250Z,21.36
2023-05-15T08:09:00.055Z,21.41
2023-05-15T08:11:26.932Z,21.62
2023-05-15T08:13:53.702Z,21.59
2023-05-15T08:16:20.574Z,21.67
2023-05-15T08:18:47.963Z,21.53
2023-05-15T08:23:41.398Z,21.91
2023-05-15T08:26:08.073Z,21.85
2023-05-15T08:28:34.743Z,21.96
2023-05-15T08:31:01.445Z,22.29
2023-05-15T08:33:28.146Z,22.44
2023-05-15T08:35:54.942Z,22.29
2023-05-15T08:38:22.728Z,22.07
2023-05-15T08:40:51.018Z,22.21
2023-05-15T08:43:18.468Z,22.28
2023-05-15T08:45:45.289Z,22.41
2023-05-15T08:48:14.215Z,21.86
2023-05-15T08:50:41.772Z,22.41
2023-05-15T08:53:08.471Z,22.09
2023-05-15T08:55:35.483Z,22.12
2023-05-15T08:58:02.633Z,22.26
2023-05-15T09:00:30.389Z,22.02
2023-05-15T09:03:03.722Z,21.97
2023-05-15T09:05:30.560Z,21.80
2023-05-15T09:07:59.242Z,21.68
2023-05-15T09:10:25.920Z,21.19
2023-05-15T09:12:53.610Z,21.12
2023-05-15T09:15:23.500Z,21.03
2023-05-15T09:17:50.781Z,21.02
2023-05-15T09:20:33.772Z,20.97
2023-05-15T09:23:01.556Z,20.90
2023-05-15T09:25:44.988Z,20.61
2023-05-15T09:28:24.890Z,20.66
2023-05-15T09:30:56.904Z,20.85
2023-05-15T09:33:28.122Z,21.22
2023-05-15T09:35:54.762Z,21.58
2023-05-15T09:38:21.921Z,21.68
2023-05-15T09:40:48.658Z,20.46
2023-05-15T09:43:16.255Z,20.13
2023-05-15T09:45:43.322Z,21.64
2023-05-15T09:48:12.122Z,21.45
2023-05-15T09:50:39.813Z,21.96
2023-05-15T09:53:06.702Z,20.42
2023-05-15T09:55:36.398Z,21.21
2023-05-15T09:58:06.629Z,21.57
2023-05-15T10:00:33.860Z,21.64
2023-05-15T10:03:04.451Z,21.94
2023-05-15T10:05:43.135Z,22.26
2023-05-15T10:08:10.869Z,22.71
2023-05-15T10:10:37.548Z,23.26
2023-05-15T10:13:06.112Z,23.25
2023-05-15T10:15:33.422Z,23.76
2023-05-15T10:18:01.559Z,24.04
2023-05-15T10:20:28.402Z,24.48
2023-05-15T10:22:56.483Z,24.74
2023-05-15T10:25:26.112Z,25.31
2023-05-15T10:27:53.034Z,25.31
2023-05-15T10:30:20.269Z,24.88
2023-05-15T10:32:48.991Z,25.22
2023-05-15T10:35:16.791Z,25.15
2023-05-15T10:37:45.480Z,24.95
2023-05-15T10:40:13.181Z,25.16
2023-05-15T10:42:41.788Z,25.13
2023-05-15T10:45:09.081Z,25.15
2023-05-15T10:47:36.685Z,25.39
2023-05-15T10:50:04.747Z,25.40
2023-05-15T10:52:36.460Z,25.50
2023-05-15T10:55:06.019Z,25.78
2023-05-15T10:57:32.872Z,26.15
2023-05-15T10:59:59.628Z,26.52
2023-05-15T11:02:29.677Z,23.99
2023-05-15T11:04:56.595Z,25.06
2023-05-15T11:07:24.446Z,24.92
2023-05-15T11:09:51.752Z,25.23
2023-05-15T11:12:18.708Z,25.03
2023-05-15T11:14:57.433Z,23.83
2023-05-15T11:17:24.619Z,24.46
2023-05-15T11:19:51.663Z,23.90
2023-05-15T11:22:18.594Z,24.19
2023-05-15T11:24:53.232Z,23.71
2023-05-15T11:27:21.294Z,23.38
2023-05-15T11:30:03.491Z,23.32
2023-05-15T11:32:48.912Z,23.80
2023-05-15T11:35:18.491Z,23.79
2023-05-15T11:37:48.175Z,24.09
2023-05-15T11:40:18.901Z,24.42
2023-05-15T11:43:05.199Z,24.94
2023-05-15T11:45:36.652Z,24.82
2023-05-15T11:48:04.748Z,25.25
2023-05-15T11:50:33.364Z,24.58
2023-05-15T11:53:04.715Z,24.20
2023-05-15T11:55:32.699Z,24.03
2023-05-15T11:57:59.699Z,24.41
2023-05-15T12:00:26.802Z,24.13
2023-05-15T12:02:54.055Z,24.37
2023-05-15T12:05:21.180Z,24.76
2023-05-15T12:07:48.022Z,24.59
2023-05-15T12:10:15.222Z,24.83
2023-05-15T12:12:44.955Z,25.23
2023-05-15T12:15:15.316Z,25.72
2023-05-15T12:17:42.210Z,25.80
2023-05-15T12:20:11.056Z,25.57
2023-05-15T12:22:44.351Z,25.70
2023-05-15T12:25:11.825Z,25.97
2023-05-15T12:27:39.710Z,26.35
2023-05-15T12:30:07.288Z,26.79
2023-05-15T12:32:34.857Z,27.10
2023-05-15T12:35:02.099Z,27.42
2023-05-15T12:37:31.415Z,27.32
2023-05-15T12:40:00.524Z,27.30
2023-05-15T12:42:27.497Z,27.28
2023-05-15T12:44:54.928Z,27.20
2023-05-15T12:47:30.843Z,27.32
2023-05-15T12:49:58.219Z,27.56
2023-05-15T12:52:28.269Z,27.49
2023-05-15T12:54:54.984Z,27.69
2023-05-15T12:57:21.674Z,28.04
2023-05-15T12:59:48.705Z,27.92
2023-05-15T13:02:17.449Z,28.23
2023-05-15T13:04:46.412Z,28.63
2023-05-15T13:07:16.838Z,27.20
2023-05-15T13:09:43.565Z,26.77
2023-05-15T13:12:12.205Z,26.22
2023-05-15T13:14:38.951Z,26.47
2023-05-15T13:17:06.174Z,26.09
2023-05-15T13:19:32.969Z,26.09
2023-05-15T13:22:00.401Z,26.28
2023-05-15T13:24:27.201Z,26.65
2023-05-15T13:26:54.048Z,26.43
2023-05-15T13:29:20.875Z,26.57
2023-05-15T13:31:47.754Z,26.75
2023-05-15T13:34:14.459Z,26.89
2023-05-15T13:36:41.253Z,26.41
2023-05-15T13:39:07.992Z,26.59
2023-05-15T13:41:35.872Z,25.90
2023-05-15T13:44:02.524Z,25.43
2023-05-15T13:46:29.200Z,25.72
2023-05-15T13:48:55.948Z,24.78
2023-05-15T13:51:22.855Z,24.75
2023-05-15T13:53:49.727Z,23.89
2023-05-15T13:56:16.787Z,22.22
2023-05-15T13:58:43.748Z,21.60
2023-05-15T14:01:10.442Z,22.59
2023-05-15T14:03:37.356Z,22.33
2023-05-15T14:06:04.273Z,21.82
2023-05-15T14:08:30.963Z,21.88
2023-05-15T14:10:57.595Z,21.96
2023-05-15T14:13:24.539Z,21.58
2023-05-15T14:15:51.393Z,21.35
2023-05-15T14:18:18.151Z,22.06
2023-05-15T14:20:44.894Z,21.97
2023-05-15T14:23:11.594Z,22.16
2023-05-15T14:25:38.276Z,22.20
2023-05-15T14:28:04.979Z,21.93
2023-05-15T14:30:31.597Z,22.52
2023-05-15T14:32:58.345Z,22.98
2023-05-15T14:35:25.090Z,22.73
2023-05-15T14:37:51.781Z,23.48
2023-05-15T14:40:18.506Z,23.80
2023-05-15T14:42:45.183Z,24.19
2023-05-15T14:45:11.885Z,24.33
2023-05-15T14:47:38.727Z,22.84
2023-05-15T14:50:05.642Z,22.99
2023-05-15T14:52:32.378Z,23.09
2023-05-15T14:55:08.482Z,23.70
2023-05-15T14:57:36.438Z,22.30
2023-05-15T15:00:04.833Z,21.89
2023-05-15T15:02:31.562Z,21.85
2023-05-15T15:04:58.501Z,20.85
2023-05-15T15:07:29.202Z,20.50
2023-05-15T15:09:55.903Z,21.12
2023-05-15T15:12:22.596Z,21.46
2023-05-15T15:14:49.302Z,20.90
2023-05-15T15:17:15.956Z,20.79
2023-05-15T15:19:42.787Z,22.02
2023-05-15T15:22:09.435Z,21.39
2023-05-15T15:24:36.171Z,21.32
2023-05-15T15:27:02.787Z,21.17
2023-05-15T15:29:29.468Z,21.02
2023-05-15T15:31:56.149Z,21.77
2023-05-15T15:34:22.817Z,21.49
2023-05-15T15:36:49.497Z,21.93
2023-05-15T15:39:16.545Z,21.66
2023-05-15T15:41:43.219Z,21.40
2023-05-15T15:44:09.860Z,21.20
2023-05-15T15:46:36.509Z,20.52
2023-05-15T15:49:04.627Z,21.67
2023-05-15T15:51:33.326Z,21.51
2023-05-15T15:54:00.010Z,21.77
2023-05-15T15:56:26.643Z,21.54
2023-05-15T15:58:53.342Z,21.27
2023-05-15T16:01:20.033Z,21.18
2023-05-15T16:03:46.817Z,21.36
2023-05-15T16:06:13.472Z,21.53
2023-05-15T16:08:40.145Z,21.52
2023-05-15T16:11:06.803Z,22.03
2023-05-15T16:13:33.464Z,21.71
2023-05-15T16:16:00.125Z,21.57
2023-05-15T16:18:26.888Z,20.70
2023-05-15T16:20:53.633Z,21.65
2023-05-15T16:23:21.388Z,21.05
2023-05-15T16:25:48.217Z,21.89
2023-05-15T16:28:14.981Z,22.14
2023-05-15T16:30:48.808Z,22.15
2023-05-15T16:33:17.907Z,22.18
2023-05-15T16:35:44.775Z,22.25
2023-05-15T16:38:11.810Z,22.41
2023-05-15T16:40:38.517Z,21.86
2023-05-15T16:43:05.539Z,21.38
2023-05-15T16:45:32.210Z,20.66
2023-05-15T16:47:58.903Z,21.02
2023-05-15T16:50:25.988Z,21.75
2023-05-15T16:52:52.836Z,21.58
2023-05-15T16:55:19.779Z,21.53
2023-05-15T16:57:46.858Z,21.93
2023-05-15T17:00:14.389Z,22.12
2023-05-15T17:02:42.269Z,21.99
2023-05-15T17:05:09.967Z,21.33
2023-05-15T17:07:39.658Z,21.63
2023-05-15T17:10:10.181Z,20.71
2023-05-15T17:12:37.436Z,21.58
2023-05-15T17:15:04.620Z,21.62
2023-05-15T17:17:31.380Z,21.05
2023-05-15T17:19:58.972Z,21.64
2023-05-15T17:22:26.577Z,20.87
2023-05-15T17:24:53.262Z,21.42
2023-05-15T17:27:20.132Z,21.49
2023-05-15T17:29:47.469Z,21.39
2023-05-15T17:32:14.403Z,21.60
2023-05-15T17:34:41.257Z,21.87
2023-05-15T17:37:08.215Z,21.59
2023-05-15T17:39:35.153Z,21.33
2023-05-15T17:42:03.463Z,21.37
2023-05-15T17:44:31.324Z,21.50
2023-05-15T17:46:58.579Z,21.61
2023-05-15T17:49:25.382Z,21.62
2023-05-15T17:51:52.627Z,21.69
2023-05-15T17:54:19.251Z,21.43
2023-05-15T17:56:46.093Z,21.68
2023-05-15T17:59:12.780Z,21.48
2023-05-15T18:01:39.697Z,21.51
2023-05-15T18:04:06.422Z,21.24
2023-05-15T18:06:34.405Z,21.29
2023-05-15T18:09:01.613Z,21.57
2023-05-15T18:11:28.373Z,21.39
2023-05-15T18:13:55.225Z,21.38
2023-05-15T18:16:22.049Z,21.32
2023-05-15T18:18:49.617Z,21.13
2023-05-15T18:21:16.401Z,21.17
2023-05-15T18:23:42.994Z,21.22
2023-05-15T18:26:10.381Z,21.01
2023-05-15T18:28:37.253Z,20.87
2023-05-15T18:31:04.012Z,20.83
2023-05-15T18:33:30.651Z,20.53
2023-05-15T18:35:57.327Z,20.73
2023-05-15T18:38:23.973Z,20.73
2023-05-15T18:40:51.864Z,20.67
2023-05-15T18:43:18.637Z,20.84
2023-05-15T18:45:46.527Z,21.02
2023-05-15T18:48:13.222Z,20.67
2023-05-15T18:50:39.887Z,20.42
2023-05-15T18:53:07.380Z,20.69
2023-05-15T18:55:34.153Z,20.67
2023-05-15T18:58:01.002Z,20.49
2023-05-15T19:00:37.812Z,20.41
2023-05-15T19:03:05.987Z,20.49
2023-05-15T19:05:34.395Z,20.55
2023-05-15T19:08:01.620Z,20.62
2023-05-15T19:10:29.838Z,20.50
2023-05-15T19:12:56.941Z,20.50
2023-05-15T19:15:23.639Z,20.47
2023-05-15T19:17:50.381Z,20.50
2023-05-15T19:20:17.114Z,20.54
2023-05-15T19:22:43.702Z,20.42
2023-05-15T19:25:10.698Z,20.38
2023-05-15T19:27:37.775Z,20.41
2023-05-15T19:30:07.061Z,20.36
2023-05-15T19:32:34.589Z,20.37
2023-05-15T19:35:01.906Z,20.36
2023-05-15T19:37:28.647Z,20.04
2023-05-15T19:39:56.559Z,20.19
2023-05-15T19:42:23.269Z,20.12
2023-05-15T19:44:49.895Z,20.11
2023-05-15T19:47:16.623Z,20.18
2023-05-15T19:49:43.237Z,20.18
2023-05-15T19:52:09.848Z,20.24
2023-05-15T19:54:36.464Z,20.18
2023-05-15T19:57:03.191Z,20.24
2023-05-15T19:59:30.036Z,20.19
2023-05-15T20:01:57.016Z,20.23
2023-05-15T20:04:23.791Z,20.23
2023-05-15T20:06:50.638Z,20.20
2023-05-15T20:09:17.700Z,20.09
2023-05-15T20:11:45.306Z,20.12
2023-05-15T20:14:12.020Z,20.13
2023-05-15T20:16:38.783Z,20.01
2023-05-15T20:19:06.675Z,19.96
2023-05-15T20:21:33.442Z,20.00
2023-05-15T20:24:00.201Z,19.25
2023-05-15T20:26:27.268Z,19.06
2023-05-15T20:28:53.846Z,18.44
2023-05-15T20:31:20.573Z,17.17
2023-05-15T20:33:47.175Z,17.96
2023-05-15T20:36:16.857Z,18.12
2023-05-15T20:38:45.030Z,17.92
2023-05-15T20:41:11.851Z,18.28
2023-05-15T20:43:39.220Z,18.36
2023-05-15T20:46:07.944Z,18.50
2023-05-15T20:48:34.640Z,18.21
2023-05-15T20:51:01.299Z,18.34
2023-05-15T20:53:29.105Z,18.06
2023-05-15T20:55:55.781Z,18.35
2023-05-15T20:58:22.389Z,18.10
2023-05-15T21:00:49.096Z,18.18
2023-05-15T21:03:15.860Z,18.35
2023-05-15T21:05:42.594Z,18.37
2023-05-15T21:08:09.287Z,18.19
2023-05-15T21:10:36.030Z,18.46
2023-05-15T21:13:02.730Z,18.56
2023-05-15T21:15:29.406Z,18.68
2023-05-15T21:17:56.184Z,18.66
2023-05-15T21:20:22.843Z,18.50
2023-05-15T21:22:49.465Z,18.77
2023-05-15T21:25:16.542Z,18.75
2023-05-15T21:27:43.206Z,18.80
2023-05-15T21:30:10.091Z,18.96
2023-05-15T21:32:36.830Z,18.81
2023-05-15T21:35:03.722Z,18.79
2023-05-15T21:37:30.850Z,18.68
2023-05-15T21:39:57.567Z,18.61
2023-05-15T21:42:24.215Z,18.58
2023-05-15T21:44:50.919Z,18.59
2023-05-15T21:47:17.559Z,18.60
2023-05-15T21:49:44.173Z,18.50
2023-05-15T21:52:11.018Z,18.46
2023-05-15T21:54:37.725Z,18.46
2023-05-15T21:57:04.499Z,18.43
2023-05-15T21:59:31.100Z,18.36
2023-05-15T22:01:57.811Z,18.25
2023-05-15T22:04:24.515Z,18.32
2023-05-15T22:06:51.358Z,18.20
2023-05-15T22:09:17.997Z,18.25
2023-05-15T22:11:44.690Z,18.06
2023-05-15T22:14:11.297Z,18.13
2023-05-15T22:16:37.956Z,18.19
2023-05-15T22:19:04.640Z,17.77
2023-05-15T22:21:31.906Z,17.57
2023-05-15T22:23:58.799Z,17.20
2023-05-15T22:26:25.681Z,17.44
2023-05-15T22:28:58.303Z,17.69
2023-05-15T22:31:25.104Z,17.31
2023-05-15T22:33:51.883Z,17.59
2023-05-15T22:36:18.612Z,17.56
2023-05-15T22:38:45.328Z,17.82
2023-05-15T22:41:12.007Z,17.86
2023-05-15T22:43:38.721Z,17.96
2023-05-15T22:46:05.534Z,18.03
2023-05-15T22:48:32.808Z,18.10
2023-05-15T22:50:59.590Z,18.08
2023-05-15T22:53:27.228Z,18.07
2023-05-15T22:55:53.930Z,18.18
2023-05-15T22:58:20.531Z,18.13
2023-05-15T23:00:47.236Z,18.28
2023-05-15T23:03:13.949Z,18.31
2023-05-15T23:05:40.750Z,18.18
2023-05-15T23:08:07.470Z,18.05
2023-05-15T23:10:34.066Z,17.96
2023-05-15T23:13:00.767Z,18.04
2023-05-15T23:15:27.489Z,18.16
2023-05-15T23:17:54.208Z,18.19
2023-05-15T23:20:20.881Z,18.11
2023-05-15T23:22:47.529Z,18.12
2023-05-15T23:25:14.186Z,18.01
2023-05-15T23:27:41.028Z,18.22
2023-05-15T23:30:07.992Z,18.05
2023-05-15T23:32:34.726Z,17.95
2023-05-15T23:35:01.390Z,17.89
2023-05-15T23:37:27.987Z,17.94
2023-05-15T23:39:55.447Z,17.81
2023-05-15T23:42:22.985Z,17.73
2023-05-15T23:44:50.196Z,17.82
2023-05-15T23:47:16.889Z,18.04
2023-05-15T23:49:43.806Z,17.80
2023-05-15T23:52:10.725Z,17.71
2023-05-15T23:54:37.391Z,17.59
2023-05-15T23:57:04.162Z,17.75
2023-05-15T23:59:31.243Z,17.81
